ěÝzenÝ letovÚho provozu ╚eskÚ republiky
Letiste: LKKB Aktualizace: 19.06.2024 04:29:39  UTC
 METAR LKKB 19.06. 04:30 ...
METAR LKKB 190430Z 21005KT CAVOK 20/17 Q1012 NOSIG RMK BLU BLU=
 TAF LKKB 18.06. 23:00 ...
TAF LKKB 182300Z 1900/2000 19008KT CAVOK      BECMG 1904/1906 330006KT      TEMPO 1905/1919 33014KT 8000 SHRA SCT040TCU      PROB30 TEMPO 1910/1919 33016G26KT 6000 TSRA SCT035CB=